sensor_id;sensor_type;location;lat;lon;timestamp;temperature;humidity
20732;DHT22;10527;52.124;5.196;2023-06-14T00:01:31;22.20;99.90
20732;DHT22;10527;52.124;5.196;2023-06-14T00:04:01;22.10;99.90
20732;DHT22;10527;52.124;5.196;2023-06-14T00:06:32;22.10;99.90
20732;DHT22;10527;52.124;5.196;2023-06-14T00:09:00;22.20;99.90
20732;DHT22;10527;52.124;5.196;2023-06-14T00:11:27;22.10;99.90
20732;DHT22;10527;52.124;5.196;2023-06-14T00:13:54;22.10;99.90
20732;DHT22;10527;52.124;5.196;2023-06-14T00:16:36;22.10;99.90
20732;DHT22;10527;52.124;5.196;2023-06-14T00:19:03;22.10;99.90
20732;DHT22;10527;52.124;5.196;2023-06-14T00:21:31;22.10;99.90
20732;DHT22;10527;52.124;5.196;2023-06-14T00:23:58;22.10;99.90
20732;DHT22;10527;52.124;5.196;2023-06-14T00:26:26;22.00;99.90
20732;DHT22;10527;52.124;5.196;2023-06-14T00:28:56;21.90;99.90
20732;DHT22;10527;52.124;5.196;2023-06-14T00:31:23;22.00;99.90
20732;DHT22;10527;52.124;5.196;2023-06-14T00:33:50;21.90;99.90
20732;DHT22;10527;52.124;5.196;2023-06-14T00:36:16;21.90;99.90
20732;DHT22;10527;52.124;5.196;2023-06-14T00:38:43;21.90;99.90
20732;DHT22;10527;52.124;5.196;2023-06-14T00:41:10;21.80;99.90
20732;DHT22;10527;52.124;5.196;2023-06-14T00:43:37;21.80;99.90
20732;DHT22;10527;52.124;5.196;2023-06-14T00:46:05;21.80;99.90
20732;DHT22;10527;52.124;5.196;2023-06-14T00:48:33;21.70;99.90
20732;DHT22;10527;52.124;5.196;2023-06-14T00:51:01;21.70;99.90
20732;DHT22;10527;52.124;5.196;2023-06-14T00:53:31;21.70;99.90
20732;DHT22;10527;52.124;5.196;2023-06-14T00:56:00;21.50;99.90
20732;DHT22;10527;52.124;5.196;2023-06-14T00:58:28;21.60;99.90
20732;DHT22;10527;52.124;5.196;2023-06-14T01:00:55;21.60;99.90
20732;DHT22;10527;52.124;5.196;2023-06-14T01:03:24;21.60;99.90
20732;DHT22;10527;52.124;5.196;2023-06-14T01:05:59;21.60;99.90
20732;DHT22;10527;52.124;5.196;2023-06-14T01:08:48;21.50;99.90
20732;DHT22;10527;52.124;5.196;2023-06-14T01:11:28;21.50;99.90
20732;DHT22;10527;52.124;5.196;2023-06-14T01:14:01;21.40;99.90
20732;DHT22;10527;52.124;5.196;2023-06-14T01:16:30;21.50;99.90
20732;DHT22;10527;52.124;5.196;2023-06-14T01:18:58;21.30;99.90
20732;DHT22;10527;52.124;5.196;2023-06-14T01:21:26;21.40;99.90
20732;DHT22;10527;52.124;5.196;2023-06-14T01:23:55;21.20;99.90
20732;DHT22;10527;52.124;5.196;2023-06-14T01:26:22;21.20;99.90
20732;DHT22;10527;52.124;5.196;2023-06-14T01:28:51;21.20;99.90
20732;DHT22;10527;52.124;5.196;2023-06-14T01:31:21;21.10;99.90
20732;DHT22;10527;52.124;5.196;2023-06-14T01:33:50;21.10;99.90
20732;DHT22;10527;52.124;5.196;2023-06-14T01:36:19;21.10;99.90
20732;DHT22;10527;52.124;5.196;2023-06-14T01:38:48;21.00;99.90
20732;DHT22;10527;52.124;5.196;2023-06-14T01:41:18;20.90;99.90
20732;DHT22;10527;52.124;5.196;2023-06-14T01:43:48;20.90;99.90
20732;DHT22;10527;52.124;5.196;2023-06-14T01:46:17;20.90;99.90
20732;DHT22;10527;52.124;5.196;2023-06-14T01:48:44;20.90;99.90
20732;DHT22;10527;52.124;5.196;2023-06-14T01:51:11;20.80;99.90
20732;DHT22;10527;52.124;5.196;2023-06-14T01:53:38;20.70;99.90
20732;DHT22;10527;52.124;5.196;2023-06-14T01:56:05;20.70;99.90
20732;DHT22;10527;52.124;5.196;2023-06-14T01:58:32;20.70;99.90
20732;DHT22;10527;52.124;5.196;2023-06-14T02:01:02;20.70;99.90
20732;DHT22;10527;52.124;5.196;2023-06-14T02:03:29;20.70;99.90
20732;DHT22;10527;52.124;5.196;2023-06-14T02:05:56;20.50;99.90
20732;DHT22;10527;52.124;5.196;2023-06-14T02:08:23;20.60;99.90
20732;DHT22;10527;52.124;5.196;2023-06-14T02:10:51;20.60;99.90
20732;DHT22;10527;52.124;5.196;2023-06-14T02:13:18;20.60;99.90
20732;DHT22;10527;52.124;5.196;2023-06-14T02:15:45;20.60;99.90
20732;DHT22;10527;52.124;5.196;2023-06-14T02:18:13;20.50;99.90
20732;DHT22;10527;52.124;5.196;2023-06-14T02:20:40;20.40;99.90
20732;DHT22;10527;52.124;5.196;2023-06-14T02:23:07;20.40;99.90
20732;DHT22;10527;52.124;5.196;2023-06-14T02:25:36;20.40;99.90
20732;DHT22;10527;52.124;5.196;2023-06-14T02:28:03;20.40;99.90
20732;DHT22;10527;52.124;5.196;2023-06-14T02:30:30;20.40;99.90
20732;DHT22;10527;52.124;5.196;2023-06-14T02:32:57;20.30;99.90
20732;DHT22;10527;52.124;5.196;2023-06-14T02:35:25;20.20;99.90
20732;DHT22;10527;52.124;5.196;2023-06-14T02:37:53;20.30;99.90
20732;DHT22;10527;52.124;5.196;2023-06-14T02:40:20;20.20;99.90
20732;DHT22;10527;52.124;5.196;2023-06-14T02:42:47;20.20;99.90
20732;DHT22;10527;52.124;5.196;2023-06-14T02:45:14;20.20;99.90
20732;DHT22;10527;52.124;5.196;2023-06-14T02:47:41;20.20;99.90
20732;DHT22;10527;52.124;5.196;2023-06-14T02:50:08;20.00;99.90
20732;DHT22;10527;52.124;5.196;2023-06-14T02:52:36;20.10;99.90
20732;DHT22;10527;52.124;5.196;2023-06-14T02:55:03;20.00;99.90
20732;DHT22;10527;52.124;5.196;2023-06-14T02:57:31;20.00;99.90
20732;DHT22;10527;52.124;5.196;2023-06-14T02:59:58;20.00;99.90
20732;DHT22;10527;52.124;5.196;2023-06-14T03:02:25;19.90;99.90
20732;DHT22;10527;52.124;5.196;2023-06-14T03:04:51;19.90;99.90
20732;DHT22;10527;52.124;5.196;2023-06-14T03:07:18;19.80;99.90
20732;DHT22;10527;52.124;5.196;2023-06-14T03:09:48;19.80;99.90
20732;DHT22;10527;52.124;5.196;2023-06-14T03:12:15;19.70;99.90
20732;DHT22;10527;52.124;5.196;2023-06-14T03:14:42;19.80;99.90
20732;DHT22;10527;52.124;5.196;2023-06-14T03:17:12;19.80;99.90
20732;DHT22;10527;52.124;5.196;2023-06-14T03:19:39;19.80;99.90
20732;DHT22;10527;52.124;5.196;2023-06-14T03:22:07;19.80;99.90
20732;DHT22;10527;52.124;5.196;2023-06-14T03:24:34;19.80;99.90
20732;DHT22;10527;52.124;5.196;2023-06-14T03:27:03;19.70;99.90
20732;DHT22;10527;52.124;5.196;2023-06-14T03:29:30;19.60;99.90
20732;DHT22;10527;52.124;5.196;2023-06-14T03:32:01;19.60;99.90
20732;DHT22;10527;52.124;5.196;2023-06-14T03:34:29;19.60;99.90
20732;DHT22;10527;52.124;5.196;2023-06-14T03:36:57;19.50;99.90
20732;DHT22;10527;52.124;5.196;2023-06-14T03:39:37;19.50;99.90
20732;DHT22;10527;52.124;5.196;2023-06-14T03:42:06;19.50;99.90
20732;DHT22;10527;52.124;5.196;2023-06-14T03:44:35;19.50;99.90
20732;DHT22;10527;52.124;5.196;2023-06-14T03:47:03;19.50;99.90
20732;DHT22;10527;52.124;5.196;2023-06-14T03:49:30;19.50;99.90
20732;DHT22;10527;52.124;5.196;2023-06-14T03:51:57;19.40;99.90
20732;DHT22;10527;52.124;5.196;2023-06-14T03:54:23;19.30;99.90
20732;DHT22;10527;52.124;5.196;2023-06-14T03:56:53;19.30;99.90
20732;DHT22;10527;52.124;5.196;2023-06-14T03:59:20;19.30;99.90
20732;DHT22;10527;52.124;5.196;2023-06-14T04:01:47;19.30;99.90
20732;DHT22;10527;52.124;5.196;2023-06-14T04:04:15;19.20;99.90
20732;DHT22;10527;52.124;5.196;2023-06-14T04:06:43;19.30;99.90
20732;DHT22;10527;52.124;5.196;2023-06-14T04:09:10;19.20;99.90
20732;DHT22;10527;52.124;5.196;2023-06-14T04:11:37;19.10;99.90
20732;DHT22;10527;52.124;5.196;2023-06-14T04:14:03;19.10;99.90
20732;DHT22;10527;52.124;5.196;2023-06-14T04:16:32;19.20;99.90
20732;DHT22;10527;52.124;5.196;2023-06-14T04:18:59;19.10;99.90
20732;DHT22;10527;52.124;5.196;2023-06-14T04:21:26;19.10;99.90
20732;DHT22;10527;52.124;5.196;2023-06-14T04:23:56;19.00;99.90
20732;DHT22;10527;52.124;5.196;2023-06-14T04:26:23;19.00;99.90
20732;DHT22;10527;52.124;5.196;2023-06-14T04:28:57;19.00;99.90
20732;DHT22;10527;52.124;5.196;2023-06-14T04:31:29;18.90;99.90
20732;DHT22;10527;52.124;5.196;2023-06-14T04:33:56;19.00;99.90
20732;DHT22;10527;52.124;5.196;2023-06-14T04:36:23;19.00;99.90
20732;DHT22;10527;52.124;5.196;2023-06-14T04:38:51;19.00;99.90
20732;DHT22;10527;52.124;5.196;2023-06-14T04:41:22;19.00;99.90
20732;DHT22;10527;52.124;5.196;2023-06-14T04:43:55;18.90;99.90
20732;DHT22;10527;52.124;5.196;2023-06-14T04:46:23;19.00;99.90
20732;DHT22;10527;52.124;5.196;2023-06-14T04:48:50;18.90;99.90
20732;DHT22;10527;52.124;5.196;2023-06-14T04:51:17;18.90;99.90
20732;DHT22;10527;52.124;5.196;2023-06-14T04:53:48;19.00;99.90
20732;DHT22;10527;52.124;5.196;2023-06-14T04:56:16;18.90;99.90
20732;DHT22;10527;52.124;5.196;2023-06-14T04:58:43;18.90;99.90
20732;DHT22;10527;52.124;5.196;2023-06-14T05:01:10;18.70;99.90
20732;DHT22;10527;52.124;5.196;2023-06-14T05:03:37;18.80;99.90
20732;DHT22;10527;52.124;5.196;2023-06-14T05:06:04;18.80;99.90
20732;DHT22;10527;52.124;5.196;2023-06-14T05:08:33;18.80;99.90
20732;DHT22;10527;52.124;5.196;2023-06-14T05:10:59;18.80;99.90
20732;DHT22;10527;52.124;5.196;2023-06-14T05:13:26;18.90;99.90
20732;DHT22;10527;52.124;5.196;2023-06-14T05:15:54;18.80;99.90
20732;DHT22;10527;52.124;5.196;2023-06-14T05:18:21;18.70;99.90
20732;DHT22;10527;52.124;5.196;2023-06-14T05:20:48;18.80;99.90
20732;DHT22;10527;52.124;5.196;2023-06-14T05:23:15;18.90;99.90
20732;DHT22;10527;52.124;5.196;2023-06-14T05:25:45;18.90;99.90
20732;DHT22;10527;52.124;5.196;2023-06-14T05:28:13;18.80;99.90
20732;DHT22;10527;52.124;5.196;2023-06-14T05:30:40;18.90;99.90
20732;DHT22;10527;52.124;5.196;2023-06-14T05:33:07;18.90;99.90
20732;DHT22;10527;52.124;5.196;2023-06-14T05:35:37;18.90;99.90
20732;DHT22;10527;52.124;5.196;2023-06-14T05:38:04;19.00;99.90
20732;DHT22;10527;52.124;5.196;2023-06-14T05:40:33;19.00;99.90
20732;DHT22;10527;52.124;5.196;2023-06-14T05:43:02;19.00;99.90
20732;DHT22;10527;52.124;5.196;2023-06-14T05:45:30;19.00;99.90
20732;DHT22;10527;52.124;5.196;2023-06-14T05:47:57;19.00;99.90
20732;DHT22;10527;52.124;5.196;2023-06-14T05:50:24;19.10;99.90
20732;DHT22;10527;52.124;5.196;2023-06-14T05:52:52;19.20;99.90
20732;DHT22;10527;52.124;5.196;2023-06-14T05:55:20;19.20;99.90
20732;DHT22;10527;52.124;5.196;2023-06-14T05:57:49;19.20;99.90
20732;DHT22;10527;52.124;5.196;2023-06-14T06:00:17;19.20;99.90
20732;DHT22;10527;52.124;5.196;2023-06-14T06:02:44;19.20;99.90
20732;DHT22;10527;52.124;5.196;2023-06-14T06:05:13;19.20;99.90
20732;DHT22;10527;52.124;5.196;2023-06-14T06:07:41;19.20;99.90
20732;DHT22;10527;52.124;5.196;2023-06-14T06:10:08;19.30;99.90
20732;DHT22;10527;52.124;5.196;2023-06-14T06:12:35;19.40;99.90
20732;DHT22;10527;52.124;5.196;2023-06-14T06:15:02;19.40;99.90
20732;DHT22;10527;52.124;5.196;2023-06-14T06:17:30;19.40;99.90
20732;DHT22;10527;52.124;5.196;2023-06-14T06:20:17;19.40;99.90
20732;DHT22;10527;52.124;5.196;2023-06-14T06:22:44;19.50;99.90
20732;DHT22;10527;52.124;5.196;2023-06-14T06:25:10;19.50;99.90
20732;DHT22;10527;52.124;5.196;2023-06-14T06:27:37;19.50;99.90
20732;DHT22;10527;52.124;5.196;2023-06-14T06:30:06;19.60;99.90
20732;DHT22;10527;52.124;5.196;2023-06-14T06:32:33;19.60;99.90
20732;DHT22;10527;52.124;5.196;2023-06-14T06:35:00;19.70;99.90
20732;DHT22;10527;52.124;5.196;2023-06-14T06:37:27;19.70;99.90
20732;DHT22;10527;52.124;5.196;2023-06-14T06:39:54;19.70;99.90
20732;DHT22;10527;52.124;5.196;2023-06-14T06:42:21;19.80;99.90
20732;DHT22;10527;52.124;5.196;2023-06-14T06:44:48;19.90;99.90
20732;DHT22;10527;52.124;5.196;2023-06-14T06:47:14;19.90;99.90
20732;DHT22;10527;52.124;5.196;2023-06-14T06:49:41;20.00;99.90
20732;DHT22;10527;52.124;5.196;2023-06-14T06:52:08;20.00;99.90
20732;DHT22;10527;52.124;5.196;2023-06-14T06:54:35;20.10;99.90
20732;DHT22;10527;52.124;5.196;2023-06-14T06:57:02;20.10;99.90
20732;DHT22;10527;52.124;5.196;2023-06-14T06:59:29;20.20;99.90
20732;DHT22;10527;52.124;5.196;2023-06-14T07:01:58;20.20;99.90
20732;DHT22;10527;52.124;5.196;2023-06-14T07:04:25;20.30;99.90
20732;DHT22;10527;52.124;5.196;2023-06-14T07:06:52;20.30;99.90
20732;DHT22;10527;52.124;5.196;2023-06-14T07:09:19;20.40;99.90
20732;DHT22;10527;52.124;5.196;2023-06-14T07:11:47;20.40;99.90
20732;DHT22;10527;52.124;5.196;2023-06-14T07:14:14;20.50;99.90
20732;DHT22;10527;52.124;5.196;2023-06-14T07:16:41;20.50;99.90
20732;DHT22;10527;52.124;5.196;2023-06-14T07:19:10;20.60;99.90
20732;DHT22;10527;52.124;5.196;2023-06-14T07:21:37;20.60;99.90
20732;DHT22;10527;52.124;5.196;2023-06-14T07:24:14;20.70;99.90
20732;DHT22;10527;52.124;5.196;2023-06-14T07:26:40;20.80;99.90
20732;DHT22;10527;52.124;5.196;2023-06-14T07:29:07;20.90;99.90
20732;DHT22;10527;52.124;5.196;2023-06-14T07:31:34;20.90;99.90
20732;DHT22;10527;52.124;5.196;2023-06-14T07:34:05;21.00;99.90
20732;DHT22;10527;52.124;5.196;2023-06-14T07:36:32;21.20;99.90
20732;DHT22;10527;52.124;5.196;2023-06-14T07:38:59;21.50;99.90
20732;DHT22;10527;52.124;5.196;2023-06-14T07:41:28;21.90;99.90
20732;DHT22;10527;52.124;5.196;2023-06-14T07:43:55;22.10;99.90
20732;DHT22;10527;52.124;5.196;2023-06-14T07:46:22;22.40;99.90
20732;DHT22;10527;52.124;5.196;2023-06-14T07:48:49;22.70;99.90
20732;DHT22;10527;52.124;5.196;2023-06-14T07:51:16;23.00;99.90
20732;DHT22;10527;52.124;5.196;2023-06-14T07:53:43;23.30;99.90
20732;DHT22;10527;52.124;5.196;2023-06-14T07:56:10;23.40;99.90
20732;DHT22;10527;52.124;5.196;2023-06-14T07:58:37;23.80;99.90
20732;DHT22;10527;52.124;5.196;2023-06-14T08:01:04;24.10;99.90
20732;DHT22;10527;52.124;5.196;2023-06-14T08:03:32;24.20;99.90
20732;DHT22;10527;52.124;5.196;2023-06-14T08:06:00;24.30;99.90
20732;DHT22;10527;52.124;5.196;2023-06-14T08:08:27;24.70;99.90
20732;DHT22;10527;52.124;5.196;2023-06-14T08:10:54;24.90;99.90
20732;DHT22;10527;52.124;5.196;2023-06-14T08:13:21;25.10;99.90
20732;DHT22;10527;52.124;5.196;2023-06-14T08:15:48;25.40;99.90
20732;DHT22;10527;52.124;5.196;2023-06-14T08:18:15;25.80;99.90
20732;DHT22;10527;52.124;5.196;2023-06-14T08:20:42;25.60;99.90
20732;DHT22;10527;52.124;5.196;2023-06-14T08:23:10;25.50;99.90
20732;DHT22;10527;52.124;5.196;2023-06-14T08:25:38;25.80;99.90
20732;DHT22;10527;52.124;5.196;2023-06-14T08:28:04;25.90;99.90
20732;DHT22;10527;52.124;5.196;2023-06-14T08:30:31;26.00;99.90
20732;DHT22;10527;52.124;5.196;2023-06-14T08:32:58;26.20;99.90
20732;DHT22;10527;52.124;5.196;2023-06-14T08:35:41;26.10;99.90
20732;DHT22;10527;52.124;5.196;2023-06-14T08:38:10;26.10;99.90
20732;DHT22;10527;52.124;5.196;2023-06-14T08:40:40;26.20;99.90
20732;DHT22;10527;52.124;5.196;2023-06-14T08:43:08;26.20;99.90
20732;DHT22;10527;52.124;5.196;2023-06-14T08:45:37;26.30;99.90
20732;DHT22;10527;52.124;5.196;2023-06-14T08:48:07;26.60;99.90
20732;DHT22;10527;52.124;5.196;2023-06-14T08:50:36;26.50;99.90
20732;DHT22;10527;52.124;5.196;2023-06-14T08:53:08;26.50;99.90
20732;DHT22;10527;52.124;5.196;2023-06-14T08:55:46;26.60;99.90
20732;DHT22;10527;52.124;5.196;2023-06-14T08:58:14;27.00;99.90
20732;DHT22;10527;52.124;5.196;2023-06-14T09:00:42;27.20;99.90
20732;DHT22;10527;52.124;5.196;2023-06-14T09:03:11;27.10;99.90
20732;DHT22;10527;52.124;5.196;2023-06-14T09:05:40;27.10;99.90
20732;DHT22;10527;52.124;5.196;2023-06-14T09:08:07;27.10;99.90
20732;DHT22;10527;52.124;5.196;2023-06-14T09:10:34;27.40;99.90
20732;DHT22;10527;52.124;5.196;2023-06-14T09:13:05;27.50;99.90
20732;DHT22;10527;52.124;5.196;2023-06-14T09:15:32;27.40;99.90
20732;DHT22;10527;52.124;5.196;2023-06-14T09:18:03;27.50;99.90
20732;DHT22;10527;52.124;5.196;2023-06-14T09:20:31;27.30;99.90
20732;DHT22;10527;52.124;5.196;2023-06-14T09:22:58;27.50;99.90
20732;DHT22;10527;52.124;5.196;2023-06-14T09:25:25;27.40;99.90
20732;DHT22;10527;52.124;5.196;2023-06-14T09:28:07;27.10;99.90
20732;DHT22;10527;52.124;5.196;2023-06-14T09:30:37;27.70;99.90
20732;DHT22;10527;52.124;5.196;2023-06-14T09:33:04;27.70;99.90
20732;DHT22;10527;52.124;5.196;2023-06-14T09:35:32;27.90;99.90
20732;DHT22;10527;52.124;5.196;2023-06-14T09:37:59;27.80;99.90
20732;DHT22;10527;52.124;5.196;2023-06-14T09:40:26;27.90;99.90
20732;DHT22;10527;52.124;5.196;2023-06-14T09:42:54;28.40;99.90
20732;DHT22;10527;52.124;5.196;2023-06-14T09:45:28;28.50;99.90
20732;DHT22;10527;52.124;5.196;2023-06-14T09:47:58;28.40;99.90
20732;DHT22;10527;52.124;5.196;2023-06-14T09:50:28;28.30;99.90
20732;DHT22;10527;52.124;5.196;2023-06-14T09:52:58;28.60;99.90
20732;DHT22;10527;52.124;5.196;2023-06-14T09:55:40;28.50;99.30
20732;DHT22;10527;52.124;5.196;2023-06-14T09:58:09;28.50;99.70
20732;DHT22;10527;52.124;5.196;2023-06-14T10:00:39;28.50;99.10
20732;DHT22;10527;52.124;5.196;2023-06-14T10:03:14;28.20;99.20
20732;DHT22;10527;52.124;5.196;2023-06-14T10:06:03;28.20;98.80
20732;DHT22;10527;52.124;5.196;2023-06-14T10:08:36;28.20;98.50
20732;DHT22;10527;52.124;5.196;2023-06-14T10:11:04;28.40;99.00
20732;DHT22;10527;52.124;5.196;2023-06-14T10:13:32;28.80;98.50
20732;DHT22;10527;52.124;5.196;2023-06-14T10:16:15;28.60;97.90
20732;DHT22;10527;52.124;5.196;2023-06-14T10:19:17;28.60;98.00
20732;DHT22;10527;52.124;5.196;2023-06-14T10:22:01;28.40;98.20
20732;DHT22;10527;52.124;5.196;2023-06-14T10:24:43;28.70;98.80
20732;DHT22;10527;52.124;5.196;2023-06-14T10:27:14;28.70;98.20
20732;DHT22;10527;52.124;5.196;2023-06-14T10:32:21;28.70;98.20
20732;DHT22;10527;52.124;5.196;2023-06-14T10:34:58;28.50;97.30
20732;DHT22;10527;52.124;5.196;2023-06-14T10:37:33;28.30;98.10
20732;DHT22;10527;52.124;5.196;2023-06-14T10:40:00;28.40;97.50
20732;DHT22;10527;52.124;5.196;2023-06-14T10:42:32;28.80;98.00
20732;DHT22;10527;52.124;5.196;2023-06-14T10:45:00;28.80;97.40
20732;DHT22;10527;52.124;5.196;2023-06-14T10:47:33;28.60;97.60
20732;DHT22;10527;52.124;5.196;2023-06-14T10:50:06;28.80;98.20
20732;DHT22;10527;52.124;5.196;2023-06-14T10:52:41;28.70;97.60
20732;DHT22;10527;52.124;5.196;2023-06-14T10:55:17;28.70;97.40
20732;DHT22;10527;52.124;5.196;2023-06-14T10:57:49;28.80;97.80
20732;DHT22;10527;52.124;5.196;2023-06-14T11:00:21;28.80;97.80
20732;DHT22;10527;52.124;5.196;2023-06-14T11:03:04;28.60;97.50
20732;DHT22;10527;52.124;5.196;2023-06-14T11:05:52;28.60;98.00
20732;DHT22;10527;52.124;5.196;2023-06-14T11:08:50;28.40;97.80
20732;DHT22;10527;52.124;5.196;2023-06-14T11:11:32;28.80;99.00
20732;DHT22;10527;52.124;5.196;2023-06-14T11:14:02;29.00;99.00
20732;DHT22;10527;52.124;5.196;2023-06-14T11:16:29;28.90;97.30
20732;DHT22;10527;52.124;5.196;2023-06-14T11:19:00;28.80;98.00
20732;DHT22;10527;52.124;5.196;2023-06-14T11:21:31;28.80;96.70
20732;DHT22;10527;52.124;5.196;2023-06-14T11:23:59;29.00;98.30
20732;DHT22;10527;52.124;5.196;2023-06-14T11:26:28;29.20;98.30
20732;DHT22;10527;52.124;5.196;2023-06-14T11:28:57;29.20;97.50
20732;DHT22;10527;52.124;5.196;2023-06-14T11:31:27;29.30;96.80
20732;DHT22;10527;52.124;5.196;2023-06-14T11:33:59;29.40;97.10
20732;DHT22;10527;52.124;5.196;2023-06-14T11:36:28;29.50;96.80
20732;DHT22;10527;52.124;5.196;2023-06-14T11:39:03;29.10;96.80
20732;DHT22;10527;52.124;5.196;2023-06-14T11:41:45;29.00;97.60
20732;DHT22;10527;52.124;5.196;2023-06-14T11:44:12;29.20;97.50
20732;DHT22;10527;52.124;5.196;2023-06-14T11:46:39;29.30;97.20
20732;DHT22;10527;52.124;5.196;2023-06-14T11:49:07;29.30;97.00
20732;DHT22;10527;52.124;5.196;2023-06-14T11:51:36;29.50;96.90
20732;DHT22;10527;52.124;5.196;2023-06-14T11:54:05;29.40;96.50
20732;DHT22;10527;52.124;5.196;2023-06-14T11:56:33;29.40;96.60
20732;DHT22;10527;52.124;5.196;2023-06-14T11:59:02;29.30;97.10
20732;DHT22;10527;52.124;5.196;2023-06-14T12:01:30;29.40;96.60
20732;DHT22;10527;52.124;5.196;2023-06-14T12:03:59;29.40;96.70
20732;DHT22;10527;52.124;5.196;2023-06-14T12:06:28;29.50;96.90
20732;DHT22;10527;52.124;5.196;2023-06-14T12:08:59;29.40;96.00
20732;DHT22;10527;52.124;5.196;2023-06-14T12:11:32;29.40;96.50
20732;DHT22;10527;52.124;5.196;2023-06-14T12:14:03;29.40;98.20
20732;DHT22;10527;52.124;5.196;2023-06-14T12:16:36;29.40;96.70
20732;DHT22;10527;52.124;5.196;2023-06-14T12:19:15;29.40;96.70
20732;DHT22;10527;52.124;5.196;2023-06-14T12:21:46;29.20;96.20
20732;DHT22;10527;52.124;5.196;2023-06-14T12:24:16;29.40;96.50
20732;DHT22;10527;52.124;5.196;2023-06-14T12:26:43;29.60;97.20
20732;DHT22;10527;52.124;5.196;2023-06-14T12:29:10;29.80;96.10
20732;DHT22;10527;52.124;5.196;2023-06-14T12:31:40;29.80;97.00
20732;DHT22;10527;52.124;5.196;2023-06-14T12:34:07;30.00;97.00
20732;DHT22;10527;52.124;5.196;2023-06-14T12:36:34;30.30;96.90
20732;DHT22;10527;52.124;5.196;2023-06-14T12:39:06;30.10;96.10
20732;DHT22;10527;52.124;5.196;2023-06-14T12:41:35;30.30;96.30
20732;DHT22;10527;52.124;5.196;2023-06-14T12:44:03;30.20;97.00
20732;DHT22;10527;52.124;5.196;2023-06-14T12:46:31;29.80;95.80
20732;DHT22;10527;52.124;5.196;2023-06-14T12:48:59;29.80;96.20
20732;DHT22;10527;52.124;5.196;2023-06-14T12:51:26;30.10;96.90
20732;DHT22;10527;52.124;5.196;2023-06-14T12:53:53;29.80;96.50
20732;DHT22;10527;52.124;5.196;2023-06-14T12:56:20;29.80;98.00
20732;DHT22;10527;52.124;5.196;2023-06-14T12:58:50;29.80;96.10
20732;DHT22;10527;52.124;5.196;2023-06-14T13:01:18;29.80;97.50
20732;DHT22;10527;52.124;5.196;2023-06-14T13:03:49;30.00;96.60
20732;DHT22;10527;52.124;5.196;2023-06-14T13:06:18;30.00;96.70
20732;DHT22;10527;52.124;5.196;2023-06-14T13:08:45;29.80;96.60
20732;DHT22;10527;52.124;5.196;2023-06-14T13:11:11;29.80;96.80
20732;DHT22;10527;52.124;5.196;2023-06-14T13:13:41;30.00;97.00
20732;DHT22;10527;52.124;5.196;2023-06-14T13:16:08;30.10;97.00
20732;DHT22;10527;52.124;5.196;2023-06-14T13:18:35;30.30;96.80
20732;DHT22;10527;52.124;5.196;2023-06-14T13:21:02;30.30;96.60
20732;DHT22;10527;52.124;5.196;2023-06-14T13:23:29;30.20;98.00
20732;DHT22;10527;52.124;5.196;2023-06-14T13:25:56;30.30;97.30
20732;DHT22;10527;52.124;5.196;2023-06-14T13:28:22;30.40;96.80
20732;DHT22;10527;52.124;5.196;2023-06-14T13:30:49;30.50;96.80
20732;DHT22;10527;52.124;5.196;2023-06-14T13:33:16;30.40;96.10
20732;DHT22;10527;52.124;5.196;2023-06-14T13:35:43;30.50;97.10
20732;DHT22;10527;52.124;5.196;2023-06-14T13:38:13;30.50;97.20
20732;DHT22;10527;52.124;5.196;2023-06-14T13:40:43;30.40;96.00
20732;DHT22;10527;52.124;5.196;2023-06-14T13:43:10;30.40;95.50
20732;DHT22;10527;52.124;5.196;2023-06-14T13:45:43;30.50;96.20
20732;DHT22;10527;52.124;5.196;2023-06-14T13:48:09;30.70;95.40
20732;DHT22;10527;52.124;5.196;2023-06-14T13:50:39;30.80;94.60
20732;DHT22;10527;52.124;5.196;2023-06-14T13:53:06;30.90;96.00
20732;DHT22;10527;52.124;5.196;2023-06-14T13:55:33;30.70;95.00
20732;DHT22;10527;52.124;5.196;2023-06-14T13:58:00;30.80;94.60
20732;DHT22;10527;52.124;5.196;2023-06-14T14:00:29;30.90;94.60
20732;DHT22;10527;52.124;5.196;2023-06-14T14:03:00;30.70;95.70
20732;DHT22;10527;52.124;5.196;2023-06-14T14:05:27;30.70;95.70
20732;DHT22;10527;52.124;5.196;2023-06-14T14:07:56;30.60;95.60
20732;DHT22;10527;52.124;5.196;2023-06-14T14:10:24;30.60;95.20
20732;DHT22;10527;52.124;5.196;2023-06-14T14:12:51;30.80;95.80
20732;DHT22;10527;52.124;5.196;2023-06-14T14:15:19;30.60;94.60
20732;DHT22;10527;52.124;5.196;2023-06-14T14:17:46;30.80;95.80
20732;DHT22;10527;52.124;5.196;2023-06-14T14:20:14;30.90;95.40
20732;DHT22;10527;52.124;5.196;2023-06-14T14:22:43;31.00;95.90
20732;DHT22;10527;52.124;5.196;2023-06-14T14:25:10;30.90;96.20
20732;DHT22;10527;52.124;5.196;2023-06-14T14:27:41;30.90;95.50
20732;DHT22;10527;52.124;5.196;2023-06-14T14:30:08;30.60;95.30
20732;DHT22;10527;52.124;5.196;2023-06-14T14:32:36;30.60;96.00
20732;DHT22;10527;52.124;5.196;2023-06-14T14:35:03;30.70;95.30
20732;DHT22;10527;52.124;5.196;2023-06-14T14:37:33;30.70;95.50
20732;DHT22;10527;52.124;5.196;2023-06-14T14:40:00;30.70;95.50
20732;DHT22;10527;52.124;5.196;2023-06-14T14:42:26;30.70;94.70
20732;DHT22;10527;52.124;5.196;2023-06-14T14:44:54;30.70;94.30
20732;DHT22;10527;52.124;5.196;2023-06-14T14:47:21;30.80;94.80
20732;DHT22;10527;52.124;5.196;2023-06-14T14:49:48;30.80;95.00
20732;DHT22;10527;52.124;5.196;2023-06-14T14:52:15;31.00;95.70
20732;DHT22;10527;52.124;5.196;2023-06-14T14:54:49;31.00;94.70
20732;DHT22;10527;52.124;5.196;2023-06-14T14:57:16;31.10;95.00
20732;DHT22;10527;52.124;5.196;2023-06-14T14:59:44;31.10;95.40
20732;DHT22;10527;52.124;5.196;2023-06-14T15:02:11;31.20;95.70
20732;DHT22;10527;52.124;5.196;2023-06-14T15:04:38;31.20;95.40
20732;DHT22;10527;52.124;5.196;2023-06-14T15:07:08;31.20;95.00
20732;DHT22;10527;52.124;5.196;2023-06-14T15:09:36;31.30;94.80
20732;DHT22;10527;52.124;5.196;2023-06-14T15:12:03;31.30;96.10
20732;DHT22;10527;52.124;5.196;2023-06-14T15:14:30;31.10;94.80
20732;DHT22;10527;52.124;5.196;2023-06-14T15:16:57;31.10;95.50
20732;DHT22;10527;52.124;5.196;2023-06-14T15:19:25;31.10;94.90
20732;DHT22;10527;52.124;5.196;2023-06-14T15:21:52;31.00;95.00
20732;DHT22;10527;52.124;5.196;2023-06-14T15:24:18;30.90;94.10
20732;DHT22;10527;52.124;5.196;2023-06-14T15:27:03;30.90;94.20
20732;DHT22;10527;52.124;5.196;2023-06-14T15:29:30;30.90;94.70
20732;DHT22;10527;52.124;5.196;2023-06-14T15:31:57;30.70;94.10
20732;DHT22;10527;52.124;5.196;2023-06-14T15:34:25;30.70;94.40
20732;DHT22;10527;52.124;5.196;2023-06-14T15:36:52;30.80;95.40
20732;DHT22;10527;52.124;5.196;2023-06-14T15:39:19;30.80;94.70
20732;DHT22;10527;52.124;5.196;2023-06-14T15:41:46;31.00;94.70
20732;DHT22;10527;52.124;5.196;2023-06-14T15:44:13;30.80;94.40